sensor_id;sensor_type;location;lat;lon;timestamp;temperature;humidity
23471;DHT22;11908;50.806;4.424;2022-08-19T00:00:08;20.10;99.90
23471;DHT22;11908;50.806;4.424;2022-08-19T00:02:35;20.00;99.90
23471;DHT22;11908;50.806;4.424;2022-08-19T00:05:01;20.00;99.90
23471;DHT22;11908;50.806;4.424;2022-08-19T00:07:27;20.00;99.90
23471;DHT22;11908;50.806;4.424;2022-08-19T00:09:52;20.00;99.90
23471;DHT22;11908;50.806;4.424;2022-08-19T00:12:19;20.00;99.90
23471;DHT22;11908;50.806;4.424;2022-08-19T00:14:45;20.00;99.90
23471;DHT22;11908;50.806;4.424;2022-08-19T00:17:11;19.90;99.90
23471;DHT22;11908;50.806;4.424;2022-08-19T00:19:37;19.90;99.90
23471;DHT22;11908;50.806;4.424;2022-08-19T00:22:03;19.90;99.90
23471;DHT22;11908;50.806;4.424;2022-08-19T00:24:31;19.80;99.90
23471;DHT22;11908;50.806;4.424;2022-08-19T00:26:57;19.80;99.90
23471;DHT22;11908;50.806;4.424;2022-08-19T00:29:24;19.90;99.90
23471;DHT22;11908;50.806;4.424;2022-08-19T00:31:50;20.00;99.90
23471;DHT22;11908;50.806;4.424;2022-08-19T00:34:20;20.10;99.90
23471;DHT22;11908;50.806;4.424;2022-08-19T00:36:46;20.10;99.90
23471;DHT22;11908;50.806;4.424;2022-08-19T00:39:13;20.20;99.90
23471;DHT22;11908;50.806;4.424;2022-08-19T00:41:39;20.30;99.90
23471;DHT22;11908;50.806;4.424;2022-08-19T00:44:06;20.30;99.90
23471;DHT22;11908;50.806;4.424;2022-08-19T00:46:33;20.30;99.90
23471;DHT22;11908;50.806;4.424;2022-08-19T00:49:04;20.20;99.90
23471;DHT22;11908;50.806;4.424;2022-08-19T00:51:32;20.30;99.90
23471;DHT22;11908;50.806;4.424;2022-08-19T00:53:58;20.30;99.90
23471;DHT22;11908;50.806;4.424;2022-08-19T00:56:26;20.40;99.90
23471;DHT22;11908;50.806;4.424;2022-08-19T00:58:53;20.50;99.90
23471;DHT22;11908;50.806;4.424;2022-08-19T01:01:20;20.40;99.90
23471;DHT22;11908;50.806;4.424;2022-08-19T01:03:45;20.50;99.90
23471;DHT22;11908;50.806;4.424;2022-08-19T01:06:11;20.60;99.90
23471;DHT22;11908;50.806;4.424;2022-08-19T01:08:37;20.50;99.90
23471;DHT22;11908;50.806;4.424;2022-08-19T01:11:02;20.50;99.90
23471;DHT22;11908;50.806;4.424;2022-08-19T01:13:32;20.50;99.90
23471;DHT22;11908;50.806;4.424;2022-08-19T01:16:02;20.50;99.90
23471;DHT22;11908;50.806;4.424;2022-08-19T01:18:29;20.40;99.90
23471;DHT22;11908;50.806;4.424;2022-08-19T01:20:58;20.40;99.90
23471;DHT22;11908;50.806;4.424;2022-08-19T01:23:27;20.40;99.90
23471;DHT22;11908;50.806;4.424;2022-08-19T01:26:12;20.30;99.90
23471;DHT22;11908;50.806;4.424;2022-08-19T01:28:40;20.40;99.90
23471;DHT22;11908;50.806;4.424;2022-08-19T01:31:12;20.30;99.90
23471;DHT22;11908;50.806;4.424;2022-08-19T01:33:38;20.20;99.90
23471;DHT22;11908;50.806;4.424;2022-08-19T01:36:11;20.20;99.90
23471;DHT22;11908;50.806;4.424;2022-08-19T01:38:39;20.10;99.90
23471;DHT22;11908;50.806;4.424;2022-08-19T01:41:05;20.10;99.90
23471;DHT22;11908;50.806;4.424;2022-08-19T01:43:32;19.90;99.90
23471;DHT22;11908;50.806;4.424;2022-08-19T01:45:58;19.90;99.90
23471;DHT22;11908;50.806;4.424;2022-08-19T01:48:24;19.90;99.90
23471;DHT22;11908;50.806;4.424;2022-08-19T01:50:49;19.80;99.90
23471;DHT22;11908;50.806;4.424;2022-08-19T01:53:15;19.80;99.90
23471;DHT22;11908;50.806;4.424;2022-08-19T01:55:43;19.70;99.90
23471;DHT22;11908;50.806;4.424;2022-08-19T01:58:15;19.70;99.90
23471;DHT22;11908;50.806;4.424;2022-08-19T02:00:42;19.70;99.90
23471;DHT22;11908;50.806;4.424;2022-08-19T02:03:08;19.70;99.90
23471;DHT22;11908;50.806;4.424;2022-08-19T02:05:37;19.70;99.90
23471;DHT22;11908;50.806;4.424;2022-08-19T02:08:03;19.60;99.90
23471;DHT22;11908;50.806;4.424;2022-08-19T02:10:29;19.60;99.90
23471;DHT22;11908;50.806;4.424;2022-08-19T02:12:55;19.60;99.90
23471;DHT22;11908;50.806;4.424;2022-08-19T02:15:20;19.60;99.90
23471;DHT22;11908;50.806;4.424;2022-08-19T02:17:47;19.60;99.90
23471;DHT22;11908;50.806;4.424;2022-08-19T02:20:14;19.60;99.90
23471;DHT22;11908;50.806;4.424;2022-08-19T02:22:40;19.60;99.90
23471;DHT22;11908;50.806;4.424;2022-08-19T02:25:13;19.50;99.90
23471;DHT22;11908;50.806;4.424;2022-08-19T02:27:40;19.40;99.90
23471;DHT22;11908;50.806;4.424;2022-08-19T02:30:09;19.50;99.90
23471;DHT22;11908;50.806;4.424;2022-08-19T02:32:35;19.40;99.90
23471;DHT22;11908;50.806;4.424;2022-08-19T02:35:01;19.40;99.90
23471;DHT22;11908;50.806;4.424;2022-08-19T02:37:27;19.30;99.90
23471;DHT22;11908;50.806;4.424;2022-08-19T02:40:11;19.20;99.90
23471;DHT22;11908;50.806;4.424;2022-08-19T02:42:37;19.20;99.90
23471;DHT22;11908;50.806;4.424;2022-08-19T02:45:03;19.10;99.90
23471;DHT22;11908;50.806;4.424;2022-08-19T02:47:30;19.10;99.90
23471;DHT22;11908;50.806;4.424;2022-08-19T02:49:56;19.10;99.90
23471;DHT22;11908;50.806;4.424;2022-08-19T02:52:21;19.20;99.90
23471;DHT22;11908;50.806;4.424;2022-08-19T02:54:49;19.20;99.90
23471;DHT22;11908;50.806;4.424;2022-08-19T02:57:14;19.20;99.90
23471;DHT22;11908;50.806;4.424;2022-08-19T02:59:40;19.20;99.90
23471;DHT22;11908;50.806;4.424;2022-08-19T03:02:06;19.10;99.90
23471;DHT22;11908;50.806;4.424;2022-08-19T03:04:31;19.10;99.90
23471;DHT22;11908;50.806;4.424;2022-08-19T03:06:57;19.10;99.90
23471;DHT22;11908;50.806;4.424;2022-08-19T03:09:23;19.10;99.90
23471;DHT22;11908;50.806;4.424;2022-08-19T03:11:49;19.10;99.90
23471;DHT22;11908;50.806;4.424;2022-08-19T03:14:15;19.10;99.90
23471;DHT22;11908;50.806;4.424;2022-08-19T03:16:44;19.10;99.90
23471;DHT22;11908;50.806;4.424;2022-08-19T03:19:10;19.10;99.90
23471;DHT22;11908;50.806;4.424;2022-08-19T03:21:36;19.10;99.90
23471;DHT22;11908;50.806;4.424;2022-08-19T03:24:05;19.10;99.90
23471;DHT22;11908;50.806;4.424;2022-08-19T03:26:31;19.00;99.90
23471;DHT22;11908;50.806;4.424;2022-08-19T03:28:56;18.90;99.90
23471;DHT22;11908;50.806;4.424;2022-08-19T03:31:23;18.90;99.90
23471;DHT22;11908;50.806;4.424;2022-08-19T03:33:52;19.00;99.90
23471;DHT22;11908;50.806;4.424;2022-08-19T03:36:23;18.90;99.90
23471;DHT22;11908;50.806;4.424;2022-08-19T03:38:54;18.90;99.90
23471;DHT22;11908;50.806;4.424;2022-08-19T03:41:29;18.80;99.90
23471;DHT22;11908;50.806;4.424;2022-08-19T03:43:56;18.80;99.90
23471;DHT22;11908;50.806;4.424;2022-08-19T03:46:27;18.80;99.90
23471;DHT22;11908;50.806;4.424;2022-08-19T03:48:55;18.80;99.90
23471;DHT22;11908;50.806;4.424;2022-08-19T03:51:28;18.70;99.90
23471;DHT22;11908;50.806;4.424;2022-08-19T03:53:56;18.70;99.90
23471;DHT22;11908;50.806;4.424;2022-08-19T03:56:22;18.70;99.90
23471;DHT22;11908;50.806;4.424;2022-08-19T03:58:48;18.70;99.90
23471;DHT22;11908;50.806;4.424;2022-08-19T04:01:17;18.60;99.90
23471;DHT22;11908;50.806;4.424;2022-08-19T04:03:44;18.70;99.90
23471;DHT22;11908;50.806;4.424;2022-08-19T04:06:18;18.60;99.90
23471;DHT22;11908;50.806;4.424;2022-08-19T04:08:45;18.60;99.90
23471;DHT22;11908;50.806;4.424;2022-08-19T04:11:23;18.60;99.90
23471;DHT22;11908;50.806;4.424;2022-08-19T04:13:50;18.40;99.90
23471;DHT22;11908;50.806;4.424;2022-08-19T04:16:20;18.30;99.90
23471;DHT22;11908;50.806;4.424;2022-08-19T04:18:47;18.10;99.90
23471;DHT22;11908;50.806;4.424;2022-08-19T04:21:22;18.20;99.90
23471;DHT22;11908;50.806;4.424;2022-08-19T04:23:48;18.10;99.90
23471;DHT22;11908;50.806;4.424;2022-08-19T04:26:21;18.20;99.90
23471;DHT22;11908;50.806;4.424;2022-08-19T04:28:47;18.20;99.90
23471;DHT22;11908;50.806;4.424;2022-08-19T04:31:19;18.10;99.90
23471;DHT22;11908;50.806;4.424;2022-08-19T04:33:45;18.10;99.90
23471;DHT22;11908;50.806;4.424;2022-08-19T04:36:19;18.00;99.90
23471;DHT22;11908;50.806;4.424;2022-08-19T04:38:49;18.00;99.90
23471;DHT22;11908;50.806;4.424;2022-08-19T04:41:16;18.10;99.90
23471;DHT22;11908;50.806;4.424;2022-08-19T04:44:00;18.00;99.90
23471;DHT22;11908;50.806;4.424;2022-08-19T04:46:27;18.00;99.90
23471;DHT22;11908;50.806;4.424;2022-08-19T04:48:55;18.00;99.90
23471;DHT22;11908;50.806;4.424;2022-08-19T04:51:22;18.00;99.90
23471;DHT22;11908;50.806;4.424;2022-08-19T04:53:48;18.10;99.90
23471;DHT22;11908;50.806;4.424;2022-08-19T04:56:16;18.10;99.90
23471;DHT22;11908;50.806;4.424;2022-08-19T04:58:44;18.10;99.90
23471;DHT22;11908;50.806;4.424;2022-08-19T05:01:13;18.10;99.90
23471;DHT22;11908;50.806;4.424;2022-08-19T05:03:39;18.10;99.90
23471;DHT22;11908;50.806;4.424;2022-08-19T05:06:10;18.10;99.90
23471;DHT22;11908;50.806;4.424;2022-08-19T05:08:37;18.20;99.90
23471;DHT22;11908;50.806;4.424;2022-08-19T05:11:14;18.30;99.90
23471;DHT22;11908;50.806;4.424;2022-08-19T05:13:40;18.40;99.90
23471;DHT22;11908;50.806;4.424;2022-08-19T05:16:06;18.50;99.90
23471;DHT22;11908;50.806;4.424;2022-08-19T05:18:32;18.70;99.90
23471;DHT22;11908;50.806;4.424;2022-08-19T05:21:19;18.70;99.90
23471;DHT22;11908;50.806;4.424;2022-08-19T05:24:04;18.80;99.90
23471;DHT22;11908;50.806;4.424;2022-08-19T05:26:37;18.80;99.90
23471;DHT22;11908;50.806;4.424;2022-08-19T05:29:03;18.90;99.90
23471;DHT22;11908;50.806;4.424;2022-08-19T05:31:30;19.10;99.90
23471;DHT22;11908;50.806;4.424;2022-08-19T05:33:56;19.30;99.90
23471;DHT22;11908;50.806;4.424;2022-08-19T05:36:27;19.40;99.90
23471;DHT22;11908;50.806;4.424;2022-08-19T05:38:53;19.70;99.90
23471;DHT22;11908;50.806;4.424;2022-08-19T05:41:20;19.80;99.90
23471;DHT22;11908;50.806;4.424;2022-08-19T05:43:48;20.10;99.90
23471;DHT22;11908;50.806;4.424;2022-08-19T05:46:18;20.50;99.90
23471;DHT22;11908;50.806;4.424;2022-08-19T05:48:44;20.90;99.90
23471;DHT22;11908;50.806;4.424;2022-08-19T05:51:10;21.50;99.90
23471;DHT22;11908;50.806;4.424;2022-08-19T05:53:36;21.90;99.90
23471;DHT22;11908;50.806;4.424;2022-08-19T05:56:07;22.30;99.90
23471;DHT22;11908;50.806;4.424;2022-08-19T05:58:34;22.20;99.90
23471;DHT22;11908;50.806;4.424;2022-08-19T06:00:59;22.10;99.90
23471;DHT22;11908;50.806;4.424;2022-08-19T06:03:33;22.20;99.90
23471;DHT22;11908;50.806;4.424;2022-08-19T06:05:59;22.10;99.90
23471;DHT22;11908;50.806;4.424;2022-08-19T06:08:26;22.20;99.90
23471;DHT22;11908;50.806;4.424;2022-08-19T06:10:53;21.90;99.90
23471;DHT22;11908;50.806;4.424;2022-08-19T06:13:18;21.90;99.90
23471;DHT22;11908;50.806;4.424;2022-08-19T06:15:45;22.00;99.90
23471;DHT22;11908;50.806;4.424;2022-08-19T06:18:13;21.90;99.90
23471;DHT22;11908;50.806;4.424;2022-08-19T06:20:39;21.80;99.90
23471;DHT22;11908;50.806;4.424;2022-08-19T06:23:05;21.80;99.90
23471;DHT22;11908;50.806;4.424;2022-08-19T06:25:31;21.70;99.90
23471;DHT22;11908;50.806;4.424;2022-08-19T06:27:56;21.60;99.90
23471;DHT22;11908;50.806;4.424;2022-08-19T06:30:22;21.90;99.90
23471;DHT22;11908;50.806;4.424;2022-08-19T06:32:48;22.00;99.90
23471;DHT22;11908;50.806;4.424;2022-08-19T06:35:14;22.20;99.90
23471;DHT22;11908;50.806;4.424;2022-08-19T06:37:40;22.40;99.90
23471;DHT22;11908;50.806;4.424;2022-08-19T06:40:06;22.10;99.90
23471;DHT22;11908;50.806;4.424;2022-08-19T06:42:34;22.10;99.90
23471;DHT22;11908;50.806;4.424;2022-08-19T06:45:00;22.10;99.90
23471;DHT22;11908;50.806;4.424;2022-08-19T06:47:28;22.10;99.90
23471;DHT22;11908;50.806;4.424;2022-08-19T06:49:58;22.00;99.90
23471;DHT22;11908;50.806;4.424;2022-08-19T06:52:27;22.20;99.90
23471;DHT22;11908;50.806;4.424;2022-08-19T06:54:52;22.50;99.90
23471;DHT22;11908;50.806;4.424;2022-08-19T06:57:19;22.20;99.90
23471;DHT22;11908;50.806;4.424;2022-08-19T06:59:45;22.30;99.90
23471;DHT22;11908;50.806;4.424;2022-08-19T07:02:11;22.50;99.90
23471;DHT22;11908;50.806;4.424;2022-08-19T07:04:37;22.40;99.90
23471;DHT22;11908;50.806;4.424;2022-08-19T07:07:10;22.30;99.90
23471;DHT22;11908;50.806;4.424;2022-08-19T07:09:39;22.40;99.90
23471;DHT22;11908;50.806;4.424;2022-08-19T07:12:07;22.70;99.90
23471;DHT22;11908;50.806;4.424;2022-08-19T07:14:33;23.00;99.90
23471;DHT22;11908;50.806;4.424;2022-08-19T07:17:05;22.90;99.90
23471;DHT22;11908;50.806;4.424;2022-08-19T07:19:31;23.00;99.90
23471;DHT22;11908;50.806;4.424;2022-08-19T07:21:57;23.10;99.90
23471;DHT22;11908;50.806;4.424;2022-08-19T07:24:25;22.90;99.90
23471;DHT22;11908;50.806;4.424;2022-08-19T07:26:53;22.80;99.90
23471;DHT22;11908;50.806;4.424;2022-08-19T07:29:20;22.80;99.90
23471;DHT22;11908;50.806;4.424;2022-08-19T07:31:49;23.00;99.90
23471;DHT22;11908;50.806;4.424;2022-08-19T07:34:15;22.80;99.90
23471;DHT22;11908;50.806;4.424;2022-08-19T07:36:43;22.70;99.90
23471;DHT22;11908;50.806;4.424;2022-08-19T07:39:12;22.70;99.90
23471;DHT22;11908;50.806;4.424;2022-08-19T07:41:39;22.80;99.90
23471;DHT22;11908;50.806;4.424;2022-08-19T07:44:06;22.90;99.90
23471;DHT22;11908;50.806;4.424;2022-08-19T07:46:34;23.10;99.90
23471;DHT22;11908;50.806;4.424;2022-08-19T07:49:00;23.30;99.90
23471;DHT22;11908;50.806;4.424;2022-08-19T07:51:27;23.30;99.90
23471;DHT22;11908;50.806;4.424;2022-08-19T07:53:53;23.10;99.90
23471;DHT22;11908;50.806;4.424;2022-08-19T07:56:19;23.10;99.90
23471;DHT22;11908;50.806;4.424;2022-08-19T07:58:47;23.30;99.90
23471;DHT22;11908;50.806;4.424;2022-08-19T08:01:19;22.90;99.90
23471;DHT22;11908;50.806;4.424;2022-08-19T08:03:48;22.60;99.90
23471;DHT22;11908;50.806;4.424;2022-08-19T08:06:33;22.70;99.90
23471;DHT22;11908;50.806;4.424;2022-08-19T08:09:24;22.90;99.90
23471;DHT22;11908;50.806;4.424;2022-08-19T08:11:53;23.30;99.90
23471;DHT22;11908;50.806;4.424;2022-08-19T08:14:26;23.40;99.90
23471;DHT22;11908;50.806;4.424;2022-08-19T08:16:52;23.50;99.90
23471;DHT22;11908;50.806;4.424;2022-08-19T08:19:20;23.50;99.90
23471;DHT22;11908;50.806;4.424;2022-08-19T08:21:46;23.80;99.90
23471;DHT22;11908;50.806;4.424;2022-08-19T08:24:13;24.10;99.90
23471;DHT22;11908;50.806;4.424;2022-08-19T08:26:39;24.10;99.90
23471;DHT22;11908;50.806;4.424;2022-08-19T08:29:05;24.10;99.90
23471;DHT22;11908;50.806;4.424;2022-08-19T08:31:32;23.90;99.90
23471;DHT22;11908;50.806;4.424;2022-08-19T08:33:59;24.00;99.90
23471;DHT22;11908;50.806;4.424;2022-08-19T08:36:25;24.20;99.90
23471;DHT22;11908;50.806;4.424;2022-08-19T08:38:51;24.40;99.90
23471;DHT22;11908;50.806;4.424;2022-08-19T08:41:53;24.40;99.90
23471;DHT22;11908;50.806;4.424;2022-08-19T08:47:18;25.00;99.90
23471;DHT22;11908;50.806;4.424;2022-08-19T08:49:53;24.90;99.90
23471;DHT22;11908;50.806;4.424;2022-08-19T08:54:48;24.40;99.90
23471;DHT22;11908;50.806;4.424;2022-08-19T08:57:22;24.30;99.90
23471;DHT22;11908;50.806;4.424;2022-08-19T08:59:50;24.10;99.90
23471;DHT22;11908;50.806;4.424;2022-08-19T09:02:20;24.10;99.90
23471;DHT22;11908;50.806;4.424;2022-08-19T09:04:46;24.00;99.90
23471;DHT22;11908;50.806;4.424;2022-08-19T09:10:29;23.70;99.90
23471;DHT22;11908;50.806;4.424;2022-08-19T09:13:29;23.90;99.90
23471;DHT22;11908;50.806;4.424;2022-08-19T09:16:05;24.00;99.90
23471;DHT22;11908;50.806;4.424;2022-08-19T09:18:45;23.90;99.90
23471;DHT22;11908;50.806;4.424;2022-08-19T09:21:13;23.80;99.90
23471;DHT22;11908;50.806;4.424;2022-08-19T09:23:38;23.70;99.90
23471;DHT22;11908;50.806;4.424;2022-08-19T09:26:16;23.70;99.90
23471;DHT22;11908;50.806;4.424;2022-08-19T09:28:44;24.00;99.90
23471;DHT22;11908;50.806;4.424;2022-08-19T09:31:12;24.00;99.90
23471;DHT22;11908;50.806;4.424;2022-08-19T09:33:38;24.10;99.90
23471;DHT22;11908;50.806;4.424;2022-08-19T09:36:09;24.10;99.90
23471;DHT22;11908;50.806;4.424;2022-08-19T09:38:36;24.30;99.90
23471;DHT22;11908;50.806;4.424;2022-08-19T09:41:06;24.30;99.90
23471;DHT22;11908;50.806;4.424;2022-08-19T09:43:33;24.30;99.90
23471;DHT22;11908;50.806;4.424;2022-08-19T09:46:05;24.40;99.90
23471;DHT22;11908;50.806;4.424;2022-08-19T09:48:32;24.30;99.90
23471;DHT22;11908;50.806;4.424;2022-08-19T09:51:04;24.30;99.90
23471;DHT22;11908;50.806;4.424;2022-08-19T09:53:30;24.20;99.90
23471;DHT22;11908;50.806;4.424;2022-08-19T09:55:56;24.40;99.90
23471;DHT22;11908;50.806;4.424;2022-08-19T09:58:22;24.20;99.90
23471;DHT22;11908;50.806;4.424;2022-08-19T10:00:56;24.10;99.90
23471;DHT22;11908;50.806;4.424;2022-08-19T10:03:23;24.10;99.90
23471;DHT22;11908;50.806;4.424;2022-08-19T10:05:49;24.30;99.90
23471;DHT22;11908;50.806;4.424;2022-08-19T10:08:23;24.60;99.90
23471;DHT22;11908;50.806;4.424;2022-08-19T10:10:51;24.60;99.90
23471;DHT22;11908;50.806;4.424;2022-08-19T10:13:19;24.50;99.90
23471;DHT22;11908;50.806;4.424;2022-08-19T10:15:47;24.60;99.90
23471;DHT22;11908;50.806;4.424;2022-08-19T10:18:16;24.80;99.90
23471;DHT22;11908;50.806;4.424;2022-08-19T10:20:49;25.00;99.90
23471;DHT22;11908;50.806;4.424;2022-08-19T10:23:16;25.50;99.90
23471;DHT22;11908;50.806;4.424;2022-08-19T10:25:42;26.00;99.90
23471;DHT22;11908;50.806;4.424;2022-08-19T10:28:08;26.00;99.90
23471;DHT22;11908;50.806;4.424;2022-08-19T10:30:37;25.60;99.90
23471;DHT22;11908;50.806;4.424;2022-08-19T10:33:02;25.40;99.90
23471;DHT22;11908;50.806;4.424;2022-08-19T10:35:28;25.30;99.90
23471;DHT22;11908;50.806;4.424;2022-08-19T10:37:55;25.30;99.90
23471;DHT22;11908;50.806;4.424;2022-08-19T10:40:25;25.50;99.90
23471;DHT22;11908;50.806;4.424;2022-08-19T10:42:52;25.60;99.90
23471;DHT22;11908;50.806;4.424;2022-08-19T10:45:18;25.80;99.90
23471;DHT22;11908;50.806;4.424;2022-08-19T10:47:44;25.70;99.90
23471;DHT22;11908;50.806;4.424;2022-08-19T10:50:09;25.80;99.90
23471;DHT22;11908;50.806;4.424;2022-08-19T10:52:54;25.70;99.90
23471;DHT22;11908;50.806;4.424;2022-08-19T10:55:22;25.80;99.90
23471;DHT22;11908;50.806;4.424;2022-08-19T10:58:11;25.70;99.90
23471;DHT22;11908;50.806;4.424;2022-08-19T11:00:37;25.90;99.90
23471;DHT22;11908;50.806;4.424;2022-08-19T11:03:03;25.80;99.90
23471;DHT22;11908;50.806;4.424;2022-08-19T11:05:28;25.80;99.90
23471;DHT22;11908;50.806;4.424;2022-08-19T11:07:55;25.80;99.90
23471;DHT22;11908;50.806;4.424;2022-08-19T11:10:21;25.90;99.90
23471;DHT22;11908;50.806;4.424;2022-08-19T11:12:49;26.20;99.90
23471;DHT22;11908;50.806;4.424;2022-08-19T11:15:18;26.10;99.90
23471;DHT22;11908;50.806;4.424;2022-08-19T11:17:43;26.00;99.90
23471;DHT22;11908;50.806;4.424;2022-08-19T11:20:11;25.50;99.90
23471;DHT22;11908;50.806;4.424;2022-08-19T11:22:38;25.50;99.90
23471;DHT22;11908;50.806;4.424;2022-08-19T11:25:04;25.50;99.90
23471;DHT22;11908;50.806;4.424;2022-08-19T11:27:30;25.40;99.90
23471;DHT22;11908;50.806;4.424;2022-08-19T11:29:56;25.60;99.90
23471;DHT22;11908;50.806;4.424;2022-08-19T11:32:21;25.50;99.90
23471;DHT22;11908;50.806;4.424;2022-08-19T11:34:47;25.40;99.90
23471;DHT22;11908;50.806;4.424;2022-08-19T11:37:12;25.30;99.90
23471;DHT22;11908;50.806;4.424;2022-08-19T11:39:38;25.40;99.90
23471;DHT22;11908;50.806;4.424;2022-08-19T11:42:05;25.50;99.90
23471;DHT22;11908;50.806;4.424;2022-08-19T11:44:52;25.50;99.90
23471;DHT22;11908;50.806;4.424;2022-08-19T11:47:18;25.70;99.90
23471;DHT22;11908;50.806;4.424;2022-08-19T11:49:43;25.60;99.90
23471;DHT22;11908;50.806;4.424;2022-08-19T11:52:10;25.70;99.90
23471;DHT22;11908;50.806;4.424;2022-08-19T11:54:36;25.70;99.90
23471;DHT22;11908;50.806;4.424;2022-08-19T11:57:03;26.00;99.90
23471;DHT22;11908;50.806;4.424;2022-08-19T11:59:29;25.70;99.90
23471;DHT22;11908;50.806;4.424;2022-08-19T12:01:55;25.50;99.90
23471;DHT22;11908;50.806;4.424;2022-08-19T12:04:23;25.40;99.90
23471;DHT22;11908;50.806;4.424;2022-08-19T12:06:48;25.60;99.90
23471;DHT22;11908;50.806;4.424;2022-08-19T12:09:16;26.00;99.90
23471;DHT22;11908;50.806;4.424;2022-08-19T12:11:43;26.30;99.90
23471;DHT22;11908;50.806;4.424;2022-08-19T12:14:11;26.70;99.90
23471;DHT22;11908;50.806;4.424;2022-08-19T12:16:38;27.30;99.90
23471;DHT22;11908;50.806;4.424;2022-08-19T12:19:04;27.40;99.90
23471;DHT22;11908;50.806;4.424;2022-08-19T12:21:33;28.00;99.90
23471;DHT22;11908;50.806;4.424;2022-08-19T12:24:00;28.30;99.90
23471;DHT22;11908;50.806;4.424;2022-08-19T12:26:28;27.90;99.90
23471;DHT22;11908;50.806;4.424;2022-08-19T12:28:54;27.70;99.90
23471;DHT22;11908;50.806;4.424;2022-08-19T12:31:20;27.80;99.90
23471;DHT22;11908;50.806;4.424;2022-08-19T12:33:46;27.80;99.90
23471;DHT22;11908;50.806;4.424;2022-08-19T12:36:14;27.80;99.90
23471;DHT22;11908;50.806;4.424;2022-08-19T12:38:41;28.20;99.90
23471;DHT22;11908;50.806;4.424;2022-08-19T12:41:11;28.40;99.90
23471;DHT22;11908;50.806;4.424;2022-08-19T12:43:37;28.40;99.90
23471;DHT22;11908;50.806;4.424;2022-08-19T12:46:05;28.30;99.90
23471;DHT22;11908;50.806;4.424;2022-08-19T12:48:34;27.90;99.90
23471;DHT22;11908;50.806;4.424;2022-08-19T12:51:00;27.90;99.90
23471;DHT22;11908;50.806;4.424;2022-08-19T12:53:27;28.40;99.90
23471;DHT22;11908;50.806;4.424;2022-08-19T12:55:58;28.80;99.90
23471;DHT22;11908;50.806;4.424;2022-08-19T12:58:25;28.90;99.90
23471;DHT22;11908;50.806;4.424;2022-08-19T13:00:51;29.00;99.90
23471;DHT22;11908;50.806;4.424;2022-08-19T13:03:17;28.90;99.90
23471;DHT22;11908;50.806;4.424;2022-08-19T13:05:42;29.10;99.90
23471;DHT22;11908;50.806;4.424;2022-08-19T13:08:08;29.00;99.90
23471;DHT22;11908;50.806;4.424;2022-08-19T13:10:35;28.70;99.90
23471;DHT22;11908;50.806;4.424;2022-08-19T13:13:08;28.80;99.90
23471;DHT22;11908;50.806;4.424;2022-08-19T13:15:37;28.70;99.90
23471;DHT22;11908;50.806;4.424;2022-08-19T13:18:05;28.50;99.90
23471;DHT22;11908;50.806;4.424;2022-08-19T13:20:31;28.10;99.90
23471;DHT22;11908;50.806;4.424;2022-08-19T13:22:56;28.10;99.90
23471;DHT22;11908;50.806;4.424;2022-08-19T13:25:23;28.00;99.90
23471;DHT22;11908;50.806;4.424;2022-08-19T13:27:49;28.20;99.90
23471;DHT22;11908;50.806;4.424;2022-08-19T13:30:16;28.20;99.90
23471;DHT22;11908;50.806;4.424;2022-08-19T13:33:01;28.10;99.90
23471;DHT22;11908;50.806;4.424;2022-08-19T13:35:36;27.70;99.90
23471;DHT22;11908;50.806;4.424;2022-08-19T13:38:02;27.60;99.90
23471;DHT22;11908;50.806;4.424;2022-08-19T13:40:30;27.80;99.90
23471;DHT22;11908;50.806;4.424;2022-08-19T13:43:00;27.90;99.90
23471;DHT22;11908;50.806;4.424;2022-08-19T13:45:28;27.90;99.90
23471;DHT22;11908;50.806;4.424;2022-08-19T13:47:56;27.90;99.90
23471;DHT22;11908;50.806;4.424;2022-08-19T13:50:25;28.00;99.90
23471;DHT22;11908;50.806;4.424;2022-08-19T13:52:52;28.00;99.90
23471;DHT22;11908;50.806;4.424;2022-08-19T13:55:18;28.20;99.90
23471;DHT22;11908;50.806;4.424;2022-08-19T13:57:45;28.40;99.90
23471;DHT22;11908;50.806;4.424;2022-08-19T14:00:16;28.00;99.90
23471;DHT22;11908;50.806;4.424;2022-08-19T14:02:47;28.20;99.90
23471;DHT22;11908;50.806;4.424;2022-08-19T14:05:15;28.20;99.90
23471;DHT22;11908;50.806;4.424;2022-08-19T14:07:41;28.00;99.90
23471;DHT22;11908;50.806;4.424;2022-08-19T14:10:09;28.10;99.90
23471;DHT22;11908;50.806;4.424;2022-08-19T14:12:35;27.90;99.90
23471;DHT22;11908;50.806;4.424;2022-08-19T14:15:02;27.60;99.90
23471;DHT22;11908;50.806;4.424;2022-08-19T14:17:28;27.20;99.90
23471;DHT22;11908;50.806;4.424;2022-08-19T14:19:59;26.90;99.90
23471;DHT22;11908;50.806;4.424;2022-08-19T14:22:39;26.90;99.90
23471;DHT22;11908;50.806;4.424;2022-08-19T14:25:07;27.10;99.90
23471;DHT22;11908;50.806;4.424;2022-08-19T14:27:34;27.00;99.90
23471;DHT22;11908;50.806;4.424;2022-08-19T14:30:00;27.00;99.90
23471;DHT22;11908;50.806;4.424;2022-08-19T14:32:27;26.90;99.90
23471;DHT22;11908;50.806;4.424;2022-08-19T14:34:53;26.80;99.90
23471;DHT22;11908;50.806;4.424;2022-08-19T14:37:19;26.90;99.90
23471;DHT22;11908;50.806;4.424;2022-08-19T14:39:45;26.50;99.90
23471;DHT22;11908;50.806;4.424;2022-08-19T14:42:12;26.20;99.90
23471;DHT22;11908;50.806;4.424;2022-08-19T14:44:39;26.00;99.90
23471;DHT22;11908;50.806;4.424;2022-08-19T14:47:05;25.90;99.90
23471;DHT22;11908;50.806;4.424;2022-08-19T14:49:33;25.70;99.90
23471;DHT22;11908;50.806;4.424;2022-08-19T14:51:58;25.70;99.90
23471;DHT22;11908;50.806;4.424;2022-08-19T14:54:24;25.40;99.90
23471;DHT22;11908;50.806;4.424;2022-08-19T14:56:50;25.40;99.90
23471;DHT22;11908;50.806;4.424;2022-08-19T14:59:16;25.50;99.90
23471;DHT22;11908;50.806;4.424;2022-08-19T15:01:42;25.80;99.90
23471;DHT22;11908;50.806;4.424;2022-08-19T15:04:07;25.90;99.90
23471;DHT22;11908;50.806;4.424;2022-08-19T15:06:33;26.20;99.90
23471;DHT22;11908;50.806;4.424;2022-08-19T15:08:59;26.10;99.90
23471;DHT22;11908;50.806;4.424;2022-08-19T15:11:27;26.10;99.90
23471;DHT22;11908;50.806;4.424;2022-08-19T15:13:54;26.10;99.90
23471;DHT22;11908;50.806;4.424;2022-08-19T15:16:22;26.10;99.90
23471;DHT22;11908;50.806;4.424;2022-08-19T15:18:53;26.30;99.90
23471;DHT22;11908;50.806;4.424;2022-08-19T15:21:20;26.10;99.90
23471;DHT22;11908;50.806;4.424;2022-08-19T15:23:49;25.90;99.90
23471;DHT22;11908;50.806;4.424;2022-08-19T15:26:16;25.60;99.90
23471;DHT22;11908;50.806;4.424;2022-08-19T15:28:42;25.60;99.90
23471;DHT22;11908;50.806;4.424;2022-08-19T15:31:09;25.50;99.90
23471;DHT22;11908;50.806;4.424;2022-08-19T15:33:36;25.40;99.90
23471;DHT22;11908;50.806;4.424;2022-08-19T15:36:06;25.50;99.90
23471;DHT22;11908;50.806;4.424;2022-08-19T15:38:33;25.60;99.90
23471;DHT22;11908;50.806;4.424;2022-08-19T15:41:00;25.60;99.90
23471;DHT22;11908;50.806;4.424;2022-08-19T15:43:47;25.80;99.90